createdAt,value
2019-03-04T00:00:09.555Z,5.53
2019-03-04T00:02:38.008Z,6.03
2019-03-04T00:05:06.890Z,5.10
2019-03-04T00:07:35.591Z,5.23
2019-03-04T00:10:04.874Z,6.93
2019-03-04T00:12:34.078Z,9.30
2019-03-04T00:15:02.562Z,7.97
2019-03-04T00:17:30.979Z,8.50
2019-03-04T00:19:59.517Z,8.93
2019-03-04T00:22:28.022Z,9.50
2019-03-04T00:24:57.074Z,8.27
2019-03-04T00:27:25.495Z,6.10
2019-03-04T00:29:53.999Z,7.30
2019-03-04T00:32:22.515Z,7.57
2019-03-04T00:34:50.922Z,6.53
2019-03-04T00:37:19.329Z,5.00
2019-03-04T00:39:47.705Z,4.93
2019-03-04T00:42:16.210Z,5.40
2019-03-04T00:44:44.690Z,5.60
2019-03-04T00:47:13.102Z,5.73
2019-03-04T00:49:41.790Z,5.13
2019-03-04T00:52:10.244Z,5.60
2019-03-04T00:54:38.713Z,5.20
2019-03-04T00:57:07.162Z,5.67
2019-03-04T00:59:35.608Z,4.87
2019-03-04T01:02:03.954Z,4.67
2019-03-04T01:04:32.533Z,4.80
2019-03-04T01:07:00.901Z,4.60
2019-03-04T01:09:29.664Z,3.73
2019-03-04T01:11:59.815Z,4.17
2019-03-04T01:14:29.630Z,4.37
2019-03-04T01:16:57.981Z,4.20
2019-03-04T01:19:26.443Z,4.40
2019-03-04T01:21:54.810Z,4.23
2019-03-04T01:24:23.258Z,4.27
2019-03-04T01:26:51.698Z,3.87
2019-03-04T01:29:20.079Z,3.83
2019-03-04T01:31:48.495Z,4.53
2019-03-04T01:34:16.887Z,3.80
2019-03-04T01:36:46.940Z,5.30
2019-03-04T01:39:15.273Z,3.60
2019-03-04T01:41:43.696Z,3.93
2019-03-04T01:44:12.077Z,4.17
2019-03-04T01:46:40.495Z,4.20
2019-03-04T01:49:08.881Z,4.20
2019-03-04T01:51:37.275Z,4.47
2019-03-04T01:54:05.766Z,3.50
2019-03-04T01:56:34.215Z,5.07
2019-03-04T01:59:02.611Z,4.50
2019-03-04T02:01:31.169Z,5.77
2019-03-04T02:03:59.559Z,5.13
2019-03-04T02:06:27.995Z,6.23
2019-03-04T02:08:56.387Z,7.10
2019-03-04T02:11:25.055Z,7.13
2019-03-04T02:13:53.457Z,6.27
2019-03-04T02:16:21.863Z,5.37
2019-03-04T02:18:50.285Z,4.87
2019-03-04T02:21:18.729Z,5.10
2019-03-04T02:23:47.187Z,5.40
2019-03-04T02:26:17.090Z,4.30
2019-03-04T02:28:45.621Z,5.40
2019-03-04T02:31:14.022Z,4.60
2019-03-04T02:33:42.433Z,5.00
2019-03-04T02:36:10.838Z,4.57
2019-03-04T02:38:39.442Z,3.93
2019-03-04T02:41:07.857Z,5.33
2019-03-04T02:43:36.226Z,3.73
2019-03-04T02:46:04.767Z,4.60
2019-03-04T02:48:33.204Z,4.27
2019-03-04T02:51:01.582Z,4.50
2019-03-04T02:53:29.986Z,3.77
2019-03-04T02:55:58.477Z,5.23
2019-03-04T02:58:26.889Z,4.80
2019-03-04T03:00:55.330Z,4.00
2019-03-04T03:03:23.972Z,4.57
2019-03-04T03:05:52.351Z,4.63
2019-03-04T03:08:21.005Z,4.60
2019-03-04T03:10:49.603Z,3.83
2019-03-04T03:13:18.342Z,4.87
2019-03-04T03:15:46.721Z,4.47
2019-03-04T03:18:15.158Z,4.90
2019-03-04T03:20:43.557Z,4.47
2019-03-04T03:23:11.976Z,4.50
2019-03-04T03:25:40.412Z,4.43
2019-03-04T03:28:08.905Z,4.10
2019-03-04T03:30:37.300Z,4.27
2019-03-04T03:33:05.752Z,4.30
2019-03-04T03:35:34.160Z,4.10
2019-03-04T03:38:02.538Z,4.43
2019-03-04T03:40:31.095Z,4.77
2019-03-04T03:42:59.467Z,4.50
2019-03-04T03:45:27.883Z,4.77
2019-03-04T03:47:56.324Z,5.00
2019-03-04T03:50:24.743Z,4.23
2019-03-04T03:52:53.119Z,4.63
2019-03-04T03:55:21.552Z,4.47
2019-03-04T03:57:49.928Z,5.17
2019-03-04T04:00:22.157Z,4.97
2019-03-04T04:02:50.584Z,5.40
2019-03-04T04:05:18.954Z,4.20
2019-03-04T04:07:47.438Z,4.60
2019-03-04T04:10:19.646Z,3.97
2019-03-04T04:12:48.040Z,6.35
2019-03-04T04:15:19.203Z,4.30
2019-03-04T04:17:47.669Z,4.40
2019-03-04T04:20:16.080Z,3.77
2019-03-04T04:22:44.475Z,4.33
2019-03-04T04:25:12.954Z,4.30
2019-03-04T04:27:42.713Z,4.30
2019-03-04T04:30:17.670Z,4.40
2019-03-04T04:32:46.145Z,4.40
2019-03-04T04:35:14.535Z,4.53
2019-03-04T04:37:43.003Z,4.93
2019-03-04T04:40:15.193Z,6.10
2019-03-04T04:42:43.644Z,5.08
2019-03-04T04:45:13.998Z,4.50
2019-03-04T04:47:45.830Z,4.20
2019-03-04T04:50:26.005Z,4.80
2019-03-04T04:52:54.672Z,4.73
2019-03-04T04:55:23.095Z,5.70
2019-03-04T04:57:51.562Z,6.10
2019-03-04T05:00:21.733Z,7.10
2019-03-04T05:02:50.062Z,7.13
2019-03-04T05:05:18.588Z,6.07
2019-03-04T05:07:47.129Z,4.47
2019-03-04T05:10:20.089Z,5.27
2019-03-04T05:12:48.605Z,5.53
2019-03-04T05:15:17.416Z,4.97
2019-03-04T05:17:46.642Z,5.20
2019-03-04T05:20:20.684Z,5.87
2019-03-04T05:22:49.209Z,6.07
2019-03-04T05:25:17.614Z,4.90
2019-03-04T05:27:46.027Z,5.37
2019-03-04T05:30:17.540Z,4.93
2019-03-04T05:32:46.082Z,6.17
2019-03-04T05:35:14.518Z,6.17
2019-03-04T05:37:42.912Z,6.97
2019-03-04T05:40:19.055Z,8.40
2019-03-04T05:42:47.430Z,8.83
2019-03-04T05:45:17.332Z,8.37
2019-03-04T05:47:46.608Z,7.33
2019-03-04T05:50:17.353Z,7.27
2019-03-04T05:52:45.725Z,7.97
2019-03-04T05:55:15.413Z,6.77
2019-03-04T05:57:43.815Z,6.07
2019-03-04T06:00:21.539Z,5.60
2019-03-04T06:02:51.878Z,6.30
2019-03-04T06:05:20.376Z,5.43
2019-03-04T06:07:56.279Z,6.13
2019-03-04T06:10:24.697Z,6.60
2019-03-04T06:12:53.182Z,7.30
2019-03-04T06:15:22.065Z,7.27
2019-03-04T06:17:50.687Z,7.03
2019-03-04T06:20:20.079Z,7.73
2019-03-04T06:22:48.667Z,6.67
2019-03-04T06:25:19.921Z,7.07
2019-03-04T06:27:49.261Z,8.03
2019-03-04T06:30:20.480Z,6.87
2019-03-04T06:32:48.938Z,6.87
2019-03-04T06:35:17.281Z,7.37
2019-03-04T06:37:45.706Z,6.80
2019-03-04T06:40:15.963Z,6.67
2019-03-04T06:42:44.339Z,6.77
2019-03-04T06:45:14.942Z,7.13
2019-03-04T06:47:43.488Z,7.03
2019-03-04T06:50:46.359Z,7.83
2019-03-04T06:53:20.639Z,7.12
2019-03-04T06:56:12.010Z,7.77
2019-03-04T06:59:01.789Z,7.83
2019-03-04T07:01:33.480Z,6.67
2019-03-04T07:04:05.114Z,7.43
2019-03-04T07:06:33.497Z,7.03
2019-03-04T07:09:07.525Z,9.10
2019-03-04T07:11:35.958Z,8.90
2019-03-04T07:14:04.722Z,8.23
2019-03-04T07:16:33.171Z,8.60
2019-03-04T07:19:02.959Z,8.20
2019-03-04T07:21:31.553Z,7.97
2019-03-04T07:24:00.044Z,7.90
2019-03-04T07:26:28.801Z,9.47
2019-03-04T07:28:57.182Z,8.30
2019-03-04T07:31:25.919Z,9.17
2019-03-04T07:33:54.222Z,7.93
2019-03-04T07:36:22.861Z,7.73
2019-03-04T07:38:56.838Z,7.53
2019-03-04T07:41:26.155Z,8.73
2019-03-04T07:43:54.584Z,9.00
2019-03-04T07:46:23.082Z,8.37
2019-03-04T07:48:54.409Z,11.20
2019-03-04T07:51:22.966Z,8.20
2019-03-04T07:53:52.762Z,7.07
2019-03-04T07:56:21.133Z,9.53
2019-03-04T07:58:49.598Z,9.80
2019-03-04T08:01:18.185Z,11.03
2019-03-04T08:03:46.663Z,10.27
2019-03-04T08:06:15.314Z,9.57
2019-03-04T08:09:04.742Z,10.67
2019-03-04T08:12:05.310Z,10.90
2019-03-04T08:14:33.790Z,11.00
2019-03-04T08:17:02.243Z,10.00
2019-03-04T08:19:30.837Z,10.53
2019-03-04T08:21:59.464Z,11.70
2019-03-04T08:24:28.377Z,12.30
2019-03-04T08:26:59.684Z,11.43
2019-03-04T08:29:28.252Z,12.17
2019-03-04T08:31:56.726Z,11.67
2019-03-04T08:34:30.945Z,12.93
2019-03-04T08:36:55.552Z,10.40
2019-03-04T08:39:24.071Z,11.43
2019-03-04T08:41:52.626Z,10.43
2019-03-04T08:44:21.089Z,11.33
2019-03-04T08:46:49.734Z,10.70
2019-03-04T08:49:18.166Z,11.10
2019-03-04T08:51:46.812Z,11.13
2019-03-04T08:54:15.258Z,13.33
2019-03-04T08:56:45.539Z,12.33
2019-03-04T08:59:13.993Z,11.73
2019-03-04T09:01:42.723Z,13.60
2019-03-04T09:04:11.153Z,12.10
2019-03-04T09:06:39.827Z,12.27
2019-03-04T09:09:08.420Z,11.40
2019-03-04T09:11:36.957Z,12.67
2019-03-04T09:14:05.651Z,11.13
2019-03-04T09:16:34.156Z,12.63
2019-03-04T09:19:02.932Z,11.13
2019-03-04T09:21:31.513Z,11.73
2019-03-04T09:24:00.052Z,12.27
2019-03-04T09:26:28.706Z,13.93
2019-03-04T09:28:57.332Z,11.97
2019-03-04T09:31:27.434Z,13.73
2019-03-04T09:33:56.039Z,12.67
2019-03-04T09:36:24.583Z,10.73
2019-03-04T09:38:53.047Z,10.93
2019-03-04T09:41:21.473Z,10.57
2019-03-04T09:43:49.885Z,9.73
2019-03-04T09:46:18.390Z,9.67
2019-03-04T09:48:46.869Z,10.93
2019-03-04T09:51:24.015Z,10.03
2019-03-04T09:53:45.586Z,10.37
2019-03-04T09:56:14.577Z,10.60
2019-03-04T09:58:45.201Z,9.53
2019-03-04T10:01:25.899Z,10.13
2019-03-04T10:04:00.329Z,9.83
2019-03-04T10:06:34.650Z,9.80
2019-03-04T10:09:28.681Z,10.43
2019-03-04T10:12:12.360Z,10.67
2019-03-04T10:14:46.793Z,11.53
2019-03-04T10:17:30.410Z,11.33
2019-03-04T10:20:17.216Z,10.97
2019-03-04T10:23:22.315Z,11.63
2019-03-04T10:26:05.751Z,11.13
2019-03-04T10:28:58.713Z,11.00
2019-03-04T10:31:39.350Z,12.80
2019-03-04T10:34:26.082Z,11.87
2019-03-04T10:37:07.255Z,14.37
2019-03-04T10:39:41.842Z,11.07
2019-03-04T10:42:36.545Z,11.53
2019-03-04T10:45:20.347Z,9.87
2019-03-04T10:47:48.753Z,10.90
2019-03-04T10:50:17.315Z,8.87
2019-03-04T10:52:45.775Z,10.47
2019-03-04T10:55:14.418Z,11.73
2019-03-04T10:57:43.161Z,10.70
2019-03-04T11:00:19.635Z,8.63
2019-03-04T11:02:48.255Z,8.77
2019-03-04T11:05:16.929Z,8.50
2019-03-04T11:07:45.859Z,8.33
2019-03-04T11:10:14.288Z,7.97
2019-03-04T11:12:45.328Z,7.67
2019-03-04T11:15:22.761Z,9.13
2019-03-04T11:17:54.565Z,10.27
2019-03-04T11:20:23.303Z,8.55
2019-03-04T11:22:52.226Z,7.53
2019-03-04T11:25:20.746Z,7.33
2019-03-04T11:27:50.770Z,7.73
2019-03-04T11:30:25.574Z,7.37
2019-03-04T11:32:54.127Z,7.33
2019-03-04T11:35:22.751Z,6.20
2019-03-04T11:37:51.493Z,7.33
2019-03-04T11:40:35.829Z,7.30
2019-03-04T11:43:04.643Z,7.07
2019-03-04T11:45:33.242Z,7.07
2019-03-04T11:48:01.923Z,6.90
2019-03-04T11:50:30.653Z,6.90
2019-03-04T11:52:59.063Z,7.63
2019-03-04T11:55:32.726Z,7.90
2019-03-04T11:58:01.327Z,9.17
2019-03-04T12:00:32.583Z,8.30
2019-03-04T12:03:01.243Z,9.07
2019-03-04T12:05:29.789Z,9.67
2019-03-04T12:07:58.319Z,10.60
2019-03-04T12:10:27.016Z,8.77
2019-03-04T12:12:55.797Z,9.57
2019-03-04T12:15:24.596Z,9.30
2019-03-04T12:17:52.954Z,8.87
2019-03-04T12:20:21.482Z,9.50
2019-03-04T12:22:50.092Z,8.37
2019-03-04T12:25:20.629Z,9.33
2019-03-04T12:27:49.362Z,8.67
2019-03-04T12:30:19.830Z,11.93
2019-03-04T12:32:48.430Z,20.83
2019-03-04T12:35:21.398Z,16.87
2019-03-04T12:37:50.015Z,10.20
2019-03-04T12:40:20.269Z,7.67
2019-03-04T12:42:48.893Z,8.03
2019-03-04T12:45:19.728Z,6.80
2019-03-04T12:47:48.246Z,6.83
2019-03-04T12:50:29.217Z,6.50
2019-03-04T12:52:58.758Z,5.57
2019-03-04T12:55:28.464Z,5.60
2019-03-04T12:57:57.028Z,5.63
2019-03-04T13:00:27.398Z,6.43
2019-03-04T13:02:58.199Z,7.13
2019-03-04T13:05:27.015Z,5.90
2019-03-04T13:07:55.533Z,5.13
2019-03-04T13:10:24.012Z,4.70
2019-03-04T13:12:54.200Z,5.00
2019-03-04T13:15:31.328Z,4.67
2019-03-04T13:17:59.904Z,4.67
2019-03-04T13:20:31.428Z,5.53
2019-03-04T13:22:59.879Z,4.30
2019-03-04T13:25:28.228Z,4.90
2019-03-04T13:27:56.690Z,5.87
2019-03-04T13:30:27.575Z,5.50
2019-03-04T13:32:56.595Z,5.40
2019-03-04T13:35:30.936Z,4.93
2019-03-04T13:37:59.438Z,4.80
2019-03-04T13:40:29.983Z,5.40
2019-03-04T13:42:58.458Z,5.60
2019-03-04T13:45:28.142Z,6.23
2019-03-04T13:47:56.668Z,7.63
2019-03-04T13:50:30.054Z,8.20
2019-03-04T13:52:58.669Z,6.97
2019-03-04T13:55:27.622Z,6.67
2019-03-04T13:57:56.289Z,6.03
2019-03-04T14:00:27.569Z,4.60
2019-03-04T14:02:56.172Z,5.80
2019-03-04T14:05:24.747Z,6.00
2019-03-04T14:07:53.135Z,6.23
2019-03-04T14:10:26.044Z,5.73
2019-03-04T14:12:54.530Z,6.10
2019-03-04T14:15:26.477Z,6.00
2019-03-04T14:17:54.879Z,6.20
2019-03-04T14:20:23.338Z,6.60
2019-03-04T14:22:57.714Z,8.17
2019-03-04T14:25:21.793Z,6.60
2019-03-04T14:27:50.284Z,7.97
2019-03-04T14:30:22.177Z,9.50
2019-03-04T14:32:50.633Z,9.65
2019-03-04T14:35:19.129Z,8.73
2019-03-04T14:37:47.541Z,7.57
2019-03-04T14:40:20.354Z,9.10
2019-03-04T14:45:22.253Z,8.87
2019-03-04T14:47:50.641Z,10.50
2019-03-04T14:50:20.314Z,10.27
2019-03-04T14:52:48.717Z,8.53
2019-03-04T14:55:21.960Z,10.03
2019-03-04T14:57:50.356Z,12.10
2019-03-04T15:00:44.423Z,10.27
2019-03-04T15:03:21.035Z,9.67
2019-03-04T15:05:42.928Z,9.97
2019-03-04T15:08:11.383Z,9.90
2019-03-04T15:10:39.789Z,10.10
2019-03-04T15:13:09.819Z,11.20
2019-03-04T15:15:39.893Z,12.37
2019-03-04T15:18:08.606Z,11.57
2019-03-04T15:20:37.031Z,18.13
2019-03-04T15:23:05.405Z,10.63
2019-03-04T15:25:41.496Z,13.10
2019-03-04T15:28:20.300Z,8.70
2019-03-04T15:30:51.991Z,9.23
2019-03-04T15:33:20.517Z,9.23
2019-03-04T15:35:49.295Z,7.57
2019-03-04T15:38:17.991Z,9.10
2019-03-04T15:40:46.727Z,9.93
2019-03-04T15:43:16.431Z,8.93
2019-03-04T15:45:46.586Z,10.53
2019-03-04T15:48:15.934Z,8.97
2019-03-04T15:50:44.392Z,13.40
2019-03-04T15:53:13.195Z,10.80
2019-03-04T15:55:45.597Z,10.20
2019-03-04T15:58:11.658Z,10.10
2019-03-04T16:00:40.123Z,9.37
2019-03-04T16:03:08.510Z,8.17
2019-03-04T16:05:36.939Z,10.67
2019-03-04T16:08:07.871Z,9.93
2019-03-04T16:10:39.415Z,10.03
2019-03-04T16:13:08.560Z,11.03
2019-03-04T16:15:40.138Z,11.37
2019-03-04T16:18:08.619Z,12.97
2019-03-04T16:20:37.333Z,11.90
2019-03-04T16:23:05.719Z,14.03
2019-03-04T16:25:34.130Z,15.00
2019-03-04T16:28:05.625Z,15.67
2019-03-04T16:30:34.157Z,17.83
2019-03-04T16:33:02.641Z,15.30
2019-03-04T16:35:31.123Z,17.47
2019-03-04T16:37:59.563Z,24.90
2019-03-04T16:40:28.654Z,20.47
2019-03-04T16:42:57.023Z,17.60
2019-03-04T16:45:25.468Z,17.73
2019-03-04T16:47:53.958Z,18.80
2019-03-04T16:50:42.558Z,18.63
2019-03-04T16:53:14.382Z,18.87
2019-03-04T16:55:42.884Z,19.17
2019-03-04T16:58:11.353Z,20.73
2019-03-04T17:00:39.763Z,23.17
2019-03-04T17:03:08.249Z,22.13
2019-03-04T17:05:36.656Z,19.23
2019-03-04T17:08:05.081Z,17.07
2019-03-04T17:10:33.646Z,20.50
2019-03-04T17:13:02.197Z,23.37
2019-03-04T17:15:32.353Z,24.60
2019-03-04T17:18:00.695Z,21.87
2019-03-04T17:20:29.197Z,20.77
2019-03-04T17:22:57.567Z,21.80
2019-03-04T17:25:25.953Z,23.43
2019-03-04T17:27:54.467Z,22.07
2019-03-04T17:30:24.286Z,24.47
2019-03-04T17:32:54.441Z,42.27
2019-03-04T17:35:24.029Z,20.87
2019-03-04T17:37:52.482Z,24.37
2019-03-04T17:40:28.465Z,17.27
2019-03-04T17:42:58.027Z,16.27
2019-03-04T17:45:29.748Z,15.83
2019-03-04T17:47:58.173Z,18.47
2019-03-04T17:50:38.111Z,14.43
2019-03-04T17:53:08.475Z,14.97
2019-03-04T17:55:36.927Z,15.20
2019-03-04T17:58:07.041Z,15.30
2019-03-04T18:00:36.861Z,14.97
2019-03-04T18:03:05.662Z,17.27
2019-03-04T18:05:34.236Z,16.83
2019-03-04T18:08:02.670Z,17.17
2019-03-04T18:10:31.326Z,16.90
2019-03-04T18:13:02.221Z,16.40
2019-03-04T18:15:39.540Z,14.63
2019-03-04T18:18:08.996Z,14.50
2019-03-04T18:20:37.475Z,14.00
2019-03-04T18:23:05.883Z,13.13
2019-03-04T18:25:43.187Z,12.20
2019-03-04T18:28:40.647Z,12.00
2019-03-04T18:31:20.989Z,13.07
2019-03-04T18:34:24.210Z,11.57
2019-03-04T18:36:58.534Z,12.10
2019-03-04T18:39:30.278Z,13.43
2019-03-04T18:42:23.912Z,12.87
2019-03-04T18:45:16.658Z,14.00
2019-03-04T18:48:15.675Z,14.87
2019-03-04T18:50:45.819Z,14.23
2019-03-04T18:53:14.173Z,15.07
2019-03-04T18:55:42.620Z,15.20
2019-03-04T18:58:11.065Z,15.93
2019-03-04T19:00:39.520Z,15.27
2019-03-04T19:03:07.890Z,15.67
2019-03-04T19:05:36.390Z,17.30
2019-03-04T19:08:04.794Z,18.43
2019-03-04T19:10:33.459Z,18.93
2019-03-04T19:13:01.932Z,18.10
2019-03-04T19:15:30.318Z,19.77
2019-03-04T19:17:58.797Z,21.47
2019-03-04T19:20:27.643Z,20.97
2019-03-04T19:22:56.321Z,23.90
2019-03-04T19:25:24.816Z,24.27
2019-03-04T19:27:53.258Z,23.67
2019-03-04T19:30:21.646Z,23.90
2019-03-04T19:32:50.108Z,25.43
2019-03-04T19:35:18.524Z,27.20
2019-03-04T19:37:47.198Z,24.53
2019-03-04T19:40:16.888Z,24.77
2019-03-04T19:42:45.405Z,25.93
2019-03-04T19:45:18.184Z,25.37
2019-03-04T19:50:15.934Z,24.57
2019-03-04T19:52:44.370Z,26.10
2019-03-04T19:55:15.383Z,25.73
2019-03-04T19:57:43.879Z,24.57
2019-03-04T20:00:27.160Z,24.57
2019-03-04T20:02:55.587Z,21.37
2019-03-04T20:05:24.313Z,22.80
2019-03-04T20:07:52.799Z,22.17
2019-03-04T20:10:21.237Z,20.60
2019-03-04T20:12:50.271Z,19.07
2019-03-04T20:15:24.342Z,19.87
2019-03-04T20:17:52.725Z,19.20
2019-03-04T20:20:21.150Z,20.13
2019-03-04T20:22:49.585Z,20.87
2019-03-04T20:25:18.909Z,19.40
2019-03-04T20:27:47.458Z,18.67
2019-03-04T20:30:18.889Z,18.00
2019-03-04T20:32:47.289Z,20.57
2019-03-04T20:35:17.342Z,20.40
2019-03-04T20:38:01.196Z,17.80
2019-03-04T20:40:29.869Z,14.43
2019-03-04T20:42:58.349Z,13.27
2019-03-04T20:45:26.759Z,12.53
2019-03-04T20:47:55.492Z,13.87
2019-03-04T20:50:25.107Z,15.63
2019-03-04T20:52:53.570Z,16.83
2019-03-04T20:55:22.581Z,16.70
2019-03-04T20:57:51.017Z,14.47
2019-03-04T21:00:24.345Z,16.37
2019-03-04T21:02:52.751Z,10.40
2019-03-04T21:05:21.211Z,9.63
2019-03-04T21:07:49.891Z,11.40
2019-03-04T21:10:18.386Z,9.53
2019-03-04T21:12:47.657Z,7.77
2019-03-04T21:15:18.386Z,5.93
2019-03-04T21:17:47.207Z,6.03
2019-03-04T21:20:19.747Z,6.57
2019-03-04T21:22:48.210Z,4.70
2019-03-04T21:25:43.858Z,5.50
2019-03-04T21:28:36.438Z,5.60
2019-03-04T21:31:10.884Z,4.78
2019-03-04T21:34:03.654Z,5.13
2019-03-04T21:37:08.554Z,5.00
2019-03-04T21:39:48.183Z,6.10
2019-03-04T21:42:21.775Z,5.43
2019-03-04T21:45:21.469Z,8.27
2019-03-04T21:47:55.637Z,9.07
2019-03-04T21:50:42.367Z,5.47
2019-03-04T21:53:14.093Z,5.43
2019-03-04T21:55:58.103Z,5.10
2019-03-04T21:58:26.493Z,4.87
2019-03-04T22:00:58.393Z,4.53
2019-03-04T22:03:26.910Z,4.27
2019-03-04T22:05:55.265Z,4.13
2019-03-04T22:08:23.793Z,3.67
2019-03-04T22:10:52.218Z,4.00
2019-03-04T22:13:20.630Z,3.30
2019-03-04T22:15:49.029Z,3.77
2019-03-04T22:18:17.658Z,3.87
2019-03-04T22:20:46.331Z,3.50
2019-03-04T22:23:15.712Z,2.80
2019-03-04T22:25:44.113Z,2.57
2019-03-04T22:28:12.561Z,2.60
2019-03-04T22:30:40.950Z,2.67
2019-03-04T22:33:09.375Z,3.00
2019-03-04T22:35:37.763Z,3.00
2019-03-04T22:38:06.169Z,2.90
2019-03-04T22:40:34.831Z,3.80
2019-03-04T22:43:03.276Z,3.50
2019-03-04T22:45:31.605Z,3.07
2019-03-04T22:48:00.072Z,2.73
2019-03-04T22:50:28.460Z,2.67
2019-03-04T22:52:56.862Z,3.57
2019-03-04T22:55:37.092Z,2.20
2019-03-04T22:58:05.999Z,3.40
2019-03-04T23:00:53.913Z,2.80
2019-03-04T23:03:24.014Z,3.23
2019-03-04T23:05:58.198Z,2.83
2019-03-04T23:08:26.702Z,2.57
2019-03-04T23:10:55.209Z,3.37
2019-03-04T23:13:33.168Z,2.60
2019-03-04T23:16:02.411Z,2.70
2019-03-04T23:18:30.919Z,2.50
2019-03-04T23:20:59.334Z,2.63
2019-03-04T23:23:27.743Z,2.47
2019-03-04T23:25:56.459Z,3.03
2019-03-04T23:28:25.199Z,2.67
2019-03-04T23:30:53.574Z,2.63
2019-03-04T23:33:21.996Z,2.43
2019-03-04T23:35:50.402Z,2.53
2019-03-04T23:38:18.811Z,2.57
2019-03-04T23:40:47.337Z,2.63
2019-03-04T23:43:15.721Z,2.90
2019-03-04T23:45:44.188Z,2.40
2019-03-04T23:48:12.842Z,2.40
2019-03-04T23:50:41.238Z,2.40
2019-03-04T23:53:09.638Z,2.37
2019-03-04T23:55:38.106Z,2.13
2019-03-04T23:58:06.510Z,2.60
